Time;durP1;ratioP1;P1;durP2;ratioP2;P2;SDS_P1;SDS_P2;PMS_P1;PMS_P2;Temp;Humidity;BMP_temperature;BMP_pressure;BME280_temperature;BME280_humidity;BME280_pressure;Samples;Min_cycle;Max_cycle;Signal;HPM_P1;HPM_P2
2021/08/10 00:00:14;;;;;;;14.20;9.63;;;;;;;;;;2130198;27;20058;-46
2021/08/10 00:01:15;;;;;;;13.15;9.13;;;;;;;;;;2132094;27;20137;-46
2021/08/10 00:02:16;;;;;;;12.02;9.85;;;;;;;;;;2132317;27;20206;-46
2021/08/10 00:03:17;;;;;;;11.35;9.75;;;;;;;;;;2129933;27;20051;-47
2021/08/10 00:04:19;;;;;;;11.48;9.80;;;;;;;;;;2132207;27;20047;-46
2021/08/10 00:05:20;;;;;;;14.35;9.73;;;;;;;;;;2132320;27;20384;-48
2021/08/10 00:06:21;;;;;;;14.63;10.30;;;;;;;;;;2130016;27;20130;-47
2021/08/10 00:07:23;;;;;;;11.80;10.02;;;;;;;;;;2132008;27;20479;-46
2021/08/10 00:08:24;;;;;;;12.65;10.07;;;;;;;;;;2132316;27;20130;-49
2021/08/10 00:09:24;;;;;;;13.30;10.02;;;;;;;;;;2129873;27;20275;-46
2021/08/10 00:10:26;;;;;;;13.20;9.27;;;;;;;;;;2132348;27;20057;-47
2021/08/10 00:11:26;;;;;;;13.70;8.90;;;;;;;;;;2132284;27;20043;-46
2021/08/10 00:12:28;;;;;;;9.20;8.20;;;;;;;;;;2129593;27;21473;-46
2021/08/10 00:13:29;;;;;;;12.88;8.35;;;;;;;;;;2132152;27;20053;-45
2021/08/10 00:14:30;;;;;;;10.10;8.95;;;;;;;;;;2129858;27;20049;-48
2021/08/10 00:15:31;;;;;;;9.55;8.23;;;;;;;;;;2130266;27;20043;-48
2021/08/10 00:16:32;;;;;;;10.40;8.55;;;;;;;;;;2132167;27;20484;-47
2021/08/10 00:17:34;;;;;;;9.57;8.40;;;;;;;;;;2131666;27;20061;-47
2021/08/10 00:18:35;;;;;;;10.97;8.17;;;;;;;;;;2130059;27;20035;-47
2021/08/10 00:19:36;;;;;;;11.48;8.40;;;;;;;;;;2132210;27;20615;-46
2021/08/10 00:20:37;;;;;;;9.02;8.00;;;;;;;;;;2131063;27;20485;-46
2021/08/10 00:21:38;;;;;;;11.10;8.67;;;;;;;;;;2130968;27;20042;-46
2021/08/10 00:22:39;;;;;;;8.38;7.60;;;;;;;;;;2132054;27;20078;-49
2021/08/10 00:23:40;;;;;;;12.02;8.80;;;;;;;;;;2130208;27;20494;-46
2021/08/10 00:24:41;;;;;;;10.15;8.38;;;;;;;;;;2131871;27;20180;-48
2021/08/10 00:25:42;;;;;;;10.00;8.70;;;;;;;;;;2132190;27;20200;-45
2021/08/10 00:26:43;;;;;;;9.77;8.75;;;;;;;;;;2130094;27;20094;-47
2021/08/10 00:27:44;;;;;;;10.98;8.73;;;;;;;;;;2131611;27;20035;-46
2021/08/10 00:28:45;;;;;;;10.32;8.43;;;;;;;;;;2132052;27;20047;-49
2021/08/10 00:29:46;;;;;;;9.23;8.30;;;;;;;;;;2129822;27;20046;-47
2021/08/10 00:30:48;;;;;;;11.57;9.50;;;;;;;;;;2131592;27;20043;-48
2021/08/10 00:31:49;;;;;;;10.27;8.57;;;;;;;;;;2131741;27;20050;-48
2021/08/10 00:32:50;;;;;;;12.10;8.65;;;;;;;;;;2129650;27;20055;-46
2021/08/10 00:33:52;;;;;;;11.23;8.65;;;;;;;;;;2130566;27;20049;-48
2021/08/10 00:34:53;;;;;;;11.20;8.73;;;;;;;;;;2132007;27;20562;-45
2021/08/10 00:35:55;;;;;;;11.75;8.93;;;;;;;;;;2129778;27;20582;-47
2021/08/10 00:36:55;;;;;;;9.45;8.55;;;;;;;;;;2130870;27;20042;-46
2021/08/10 00:37:56;;;;;;;12.47;8.40;;;;;;;;;;2131914;27;20110;-47
2021/08/10 00:38:57;;;;;;;9.70;8.70;;;;;;;;;;2129581;27;20056;-45
2021/08/10 00:39:59;;;;;;;16.90;8.90;;;;;;;;;;2132004;27;20402;-48
2021/08/10 00:41:00;;;;;;;9.80;8.75;;;;;;;;;;2132032;27;20043;-46
2021/08/10 00:42:01;;;;;;;9.77;8.68;;;;;;;;;;2129781;27;20073;-46
2021/08/10 00:43:02;;;;;;;10.20;8.25;;;;;;;;;;2131968;27;20042;-45
2021/08/10 00:44:03;;;;;;;12.00;8.55;;;;;;;;;;2132182;27;20078;-46
2021/08/10 00:45:05;;;;;;;9.75;8.20;;;;;;;;;;2129642;27;20626;-46
2021/08/10 00:46:08;;;;;;;11.80;8.45;;;;;;;;;;2132097;27;20043;-48
2021/08/10 00:47:09;;;;;;;10.77;9.32;;;;;;;;;;2131450;27;20171;-47
2021/08/10 00:48:10;;;;;;;11.63;8.80;;;;;;;;;;2130321;27;20103;-48
2021/08/10 00:49:11;;;;;;;11.10;9.25;;;;;;;;;;2132054;27;20822;-46
2021/08/10 00:50:12;;;;;;;10.32;9.32;;;;;;;;;;2131814;27;20133;-48
2021/08/10 00:51:14;;;;;;;11.90;9.23;;;;;;;;;;2130099;27;20482;-47
2021/08/10 00:52:15;;;;;;;11.45;9.73;;;;;;;;;;2129525;27;20067;-49
2021/08/10 00:53:16;;;;;;;13.05;10.00;;;;;;;;;;2124716;27;20051;-43
2021/08/10 00:54:17;;;;;;;13.15;11.68;;;;;;;;;;2130887;27;20060;-46
2021/08/10 00:55:18;;;;;;;12.40;10.73;;;;;;;;;;2131933;27;20523;-44
2021/08/10 00:56:19;;;;;;;16.38;11.25;;;;;;;;;;2129993;27;20137;-47
2021/08/10 00:57:20;;;;;;;14.03;10.90;;;;;;;;;;2131587;27;20506;-46
2021/08/10 00:58:21;;;;;;;15.38;11.63;;;;;;;;;;2131805;27;20547;-44
2021/08/10 00:59:22;;;;;;;12.00;10.00;;;;;;;;;;2130071;27;20126;-45
2021/08/10 01:00:23;;;;;;;15.15;10.73;;;;;;;;;;2131089;27;20050;-44
2021/08/10 01:01:25;;;;;;;14.20;10.40;;;;;;;;;;2131901;27;20043;-44
2021/08/10 01:02:26;;;;;;;11.98;10.77;;;;;;;;;;2129886;27;20046;-45
2021/08/10 01:03:27;;;;;;;13.43;12.02;;;;;;;;;;2131557;27;20050;-44
2021/08/10 01:04:29;;;;;;;15.23;11.85;;;;;;;;;;2132001;27;20130;-43
2021/08/10 01:05:30;;;;;;;12.88;10.63;;;;;;;;;;2129728;27;20079;-44
2021/08/10 01:06:33;;;;;;;14.25;10.38;;;;;;;;;;2131845;27;20091;-44
2021/08/10 01:07:39;;;;;;;12.07;9.70;;;;;;;;;;2131743;27;20148;-45
2021/08/10 01:08:43;;;;;;;12.82;9.75;;;;;;;;;;2129560;27;20077;-44
2021/08/10 01:09:47;;;;;;;11.30;9.02;;;;;;;;;;2131798;27;20042;-44
2021/08/10 01:10:54;;;;;;;11.88;8.85;;;;;;;;;;2128856;27;20042;-44
2021/08/10 01:11:59;;;;;;;12.18;9.77;;;;;;;;;;2129292;27;20144;-44
2021/08/10 01:13:05;;;;;;;10.77;9.55;;;;;;;;;;2132090;27;20046;-46
2021/08/10 01:14:10;;;;;;;13.65;9.40;;;;;;;;;;2129944;27;20035;-44
2021/08/10 01:15:13;;;;;;;12.32;9.18;;;;;;;;;;2131375;27;20042;-45
2021/08/10 01:16:17;;;;;;;12.88;9.85;;;;;;;;;;2131958;27;20057;-45
2021/08/10 01:17:21;;;;;;;10.38;9.35;;;;;;;;;;2129688;27;20080;-45
2021/08/10 01:18:25;;;;;;;11.10;8.98;;;;;;;;;;2130740;27;20188;-44
2021/08/10 01:19:47;;;;;;;11.18;9.63;;;;;;;;;;2131709;27;20066;-44
2021/08/10 01:21:07;;;;;;;9.88;8.80;;;;;;;;;;2129753;27;20117;-43
2021/08/10 01:22:09;;;;;;;10.13;9.13;;;;;;;;;;2131803;27;20083;-46
2021/08/10 01:23:11;;;;;;;10.77;8.55;;;;;;;;;;2129695;27;20061;-46
2021/08/10 01:24:16;;;;;;;10.20;8.75;;;;;;;;;;2131370;27;20839;-45
2021/08/10 01:25:24;;;;;;;10.82;7.72;;;;;;;;;;2131607;27;20191;-44
2021/08/10 01:26:29;;;;;;;10.50;9.18;;;;;;;;;;2129450;27;20459;-45
2021/08/10 01:27:37;;;;;;;11.25;8.88;;;;;;;;;;2123128;28;20070;-43
2021/08/10 01:28:45;;;;;;;11.45;8.85;;;;;;;;;;2122836;27;20078;-44
2021/08/10 01:29:49;;;;;;;11.02;8.40;;;;;;;;;;2129786;27;20039;-44
2021/08/10 01:31:02;;;;;;;11.43;8.90;;;;;;;;;;2131655;27;20404;-44
2021/08/10 01:32:04;;;;;;;11.93;9.57;;;;;;;;;;2129610;27;20171;-45
2021/08/10 01:33:06;;;;;;;9.35;8.38;;;;;;;;;;2131359;27;20038;-44
2021/08/10 01:34:07;;;;;;;;;;;;;;;;;;2132195;27;20453;-45
2021/08/10 01:35:08;;;;;;;8.45;7.63;;;;;;;;;;2129315;27;19919;-43
2021/08/10 01:36:10;;;;;;;9.55;7.78;;;;;;;;;;2131535;27;20073;-45
2021/08/10 01:37:12;;;;;;;10.48;8.07;;;;;;;;;;2131570;27;20049;-44
2021/08/10 01:38:15;;;;;;;11.10;8.48;;;;;;;;;;2129200;27;20495;-45
2021/08/10 01:39:18;;;;;;;8.75;7.85;;;;;;;;;;2131481;27;20509;-43
2021/08/10 01:40:19;;;;;;;9.95;8.05;;;;;;;;;;2132099;27;20296;-45
2021/08/10 01:41:21;;;;;;;10.30;8.23;;;;;;;;;;2129273;27;20134;-46
2021/08/10 01:42:23;;;;;;;9.50;8.40;;;;;;;;;;2131686;27;20088;-48
2021/08/10 01:43:25;;;;;;;9.13;8.05;;;;;;;;;;2131685;27;20047;-45
2021/08/10 01:44:27;;;;;;;8.90;8.00;;;;;;;;;;2129147;27;20558;-47
2021/08/10 01:45:27;;;;;;;;;;;;;;;;;;2131559;27;20486;-46
2021/08/10 01:46:29;;;;;;;9.25;8.30;;;;;;;;;;2131097;27;19919;-47
2021/08/10 01:47:31;;;;;;;8.80;7.85;;;;;;;;;;2129473;27;20121;-48
2021/08/10 01:48:33;;;;;;;8.30;7.38;;;;;;;;;;2131536;27;20560;-46
2021/08/10 01:49:35;;;;;;;8.77;7.78;;;;;;;;;;2131109;27;20129;-46
2021/08/10 01:50:37;;;;;;;7.90;7.10;;;;;;;;;;2130058;27;20479;-46
2021/08/10 01:51:38;;;;;;;8.52;7.70;;;;;;;;;;2131629;27;20049;-46
2021/08/10 01:52:40;;;;;;;11.88;8.73;;;;;;;;;;2126552;27;20138;-46
2021/08/10 01:53:41;;;;;;;8.52;7.65;;;;;;;;;;2130254;27;20133;-46
2021/08/10 01:54:43;;;;;;;8.05;7.25;;;;;;;;;;2131578;27;20145;-45
2021/08/10 01:55:45;;;;;;;13.00;7.72;;;;;;;;;;2130789;27;20049;-47
2021/08/10 01:56:46;;;;;;;10.32;7.75;;;;;;;;;;2131161;27;20447;-45
2021/08/10 01:57:47;;;;;;;9.00;8.05;;;;;;;;;;2131536;27;20058;-46
2021/08/10 01:58:48;;;;;;;;;;;;;;;;;;2128299;27;20495;-46
2021/08/10 01:59:50;;;;;;;10.15;8.32;;;;;;;;;;2131056;27;19918;-49
2021/08/10 02:00:51;;;;;;;9.45;8.38;;;;;;;;;;2131622;27;20042;-47
2021/08/10 02:01:53;;;;;;;8.32;7.53;;;;;;;;;;2129343;27;20064;-47
2021/08/10 02:02:57;;;;;;;9.00;8.00;;;;;;;;;;2131265;27;20050;-48
2021/08/10 02:04:00;;;;;;;9.07;7.93;;;;;;;;;;2131567;27;20046;-48
2021/08/10 02:05:01;;;;;;;9.18;7.60;;;;;;;;;;2129301;27;20049;-47
2021/08/10 02:06:02;;;;;;;9.20;7.43;;;;;;;;;;2131468;27;20129;-46
2021/08/10 02:07:03;;;;;;;9.02;7.80;;;;;;;;;;2128626;27;20485;-50
2021/08/10 02:08:04;;;;;;;12.75;8.73;;;;;;;;;;2128019;27;20072;-46
2021/08/10 02:09:06;;;;;;;8.53;7.73;;;;;;;;;;2131607;27;20125;-47
2021/08/10 02:10:07;;;;;;;9.70;7.78;;;;;;;;;;2131592;27;20141;-48
2021/08/10 02:11:10;;;;;;;9.02;7.70;;;;;;;;;;2128979;27;20117;-50
2021/08/10 02:12:11;;;;;;;8.60;7.38;;;;;;;;;;2131590;27;20115;-48
2021/08/10 02:13:12;;;;;;;8.00;7.20;;;;;;;;;;2131003;27;20034;-47
2021/08/10 02:14:15;;;;;;;9.43;7.47;;;;;;;;;;2129617;27;20137;-48
2021/08/10 02:15:17;;;;;;;8.63;7.70;;;;;;;;;;2131488;27;20046;-50
2021/08/10 02:16:18;;;;;;;10.88;8.40;;;;;;;;;;2130663;27;20171;-49
2021/08/10 02:17:19;;;;;;;9.43;8.05;;;;;;;;;;2129971;27;20418;-48
2021/08/10 02:18:21;;;;;;;8.93;7.97;;;;;;;;;;2131432;27;20054;-47
2021/08/10 02:19:22;;;;;;;8.98;8.07;;;;;;;;;;2129356;27;20130;-46
2021/08/10 02:20:23;;;;;;;9.80;7.60;;;;;;;;;;2131135;27;20129;-46
2021/08/10 02:21:26;;;;;;;8.30;7.50;;;;;;;;;;2131455;27;20554;-46
2021/08/10 02:22:28;;;;;;;7.43;6.70;;;;;;;;;;2129361;27;20125;-47
2021/08/10 02:23:29;;;;;;;;;;;;;;;;;;2130617;27;20121;-47
2021/08/10 02:24:34;;;;;;;11.35;7.85;;;;;;;;;;2131357;27;20009;-46
2021/08/10 02:25:37;;;;;;;10.75;7.72;;;;;;;;;;2129304;27;20125;-46
2021/08/10 02:26:42;;;;;;;12.07;7.93;;;;;;;;;;2131093;27;20133;-46
2021/08/10 02:27:47;;;;;;;11.75;8.30;;;;;;;;;;2131423;27;20048;-46
2021/08/10 02:28:49;;;;;;;9.20;8.05;;;;;;;;;;2128909;27;20148;-46
2021/08/10 02:29:50;;;;;;;;;;;;;;;;;;2131976;27;20051;-47
2021/08/10 02:30:53;;;;;;;9.52;7.85;;;;;;;;;;2131398;27;19927;-46
2021/08/10 02:31:54;;;;;;;10.57;8.13;;;;;;;;;;2129009;27;20042;-46
2021/08/10 02:32:55;;;;;;;9.80;8.18;;;;;;;;;;2131360;27;20121;-48
2021/08/10 02:33:57;;;;;;;9.60;8.63;;;;;;;;;;2131017;27;20039;-45
2021/08/10 02:34:59;;;;;;;9.23;7.53;;;;;;;;;;2129310;27;20045;-47
2021/08/10 02:36:00;;;;;;;;;;;;;;;;;;2131856;27;20039;-47
2021/08/10 02:37:02;;;;;;;9.23;8.20;;;;;;;;;;2131062;27;20286;-46
2021/08/10 02:38:05;;;;;;;9.25;8.35;;;;;;;;;;2129488;27;20053;-48
2021/08/10 02:39:06;;;;;;;9.95;8.02;;;;;;;;;;2131403;27;20147;-48
2021/08/10 02:40:09;;;;;;;10.80;8.57;;;;;;;;;;2129712;27;20121;-46
2021/08/10 02:41:10;;;;;;;9.32;8.30;;;;;;;;;;2130068;27;20075;-48
2021/08/10 02:42:12;;;;;;;8.80;7.90;;;;;;;;;;2131169;27;20402;-46
2021/08/10 02:43:13;;;;;;;9.35;8.45;;;;;;;;;;2129337;27;20159;-47
2021/08/10 02:44:14;;;;;;;9.52;7.25;;;;;;;;;;2129816;27;20524;-47
2021/08/10 02:45:16;;;;;;;8.93;8.00;;;;;;;;;;2131294;27;20092;-48
2021/08/10 02:46:17;;;;;;;9.40;8.40;;;;;;;;;;2129383;27;20050;-46
2021/08/10 02:47:18;;;;;;;8.60;7.70;;;;;;;;;;2131052;27;20051;-47
2021/08/10 02:48:19;;;;;;;12.75;8.30;;;;;;;;;;2131373;27;20054;-47
2021/08/10 02:49:21;;;;;;;7.87;7.00;;;;;;;;;;2129218;27;20475;-48
2021/08/10 02:50:22;;;;;;;9.48;7.88;;;;;;;;;;2131070;27;20047;-45
2021/08/10 02:51:23;;;;;;;10.32;7.78;;;;;;;;;;2131245;27;20497;-47
2021/08/10 02:52:24;;;;;;;13.18;8.18;;;;;;;;;;2126786;27;20042;-46
2021/08/10 02:53:26;;;;;;;9.10;7.50;;;;;;;;;;2130941;27;20122;-46
2021/08/10 02:54:27;;;;;;;10.75;7.60;;;;;;;;;;2131238;27;20046;-46
2021/08/10 02:55:29;;;;;;;12.23;9.17;;;;;;;;;;2128929;27;20043;-49
2021/08/10 02:56:33;;;;;;;9.20;8.18;;;;;;;;;;2122628;27;20043;-48
2021/08/10 02:57:36;;;;;;;10.45;8.52;;;;;;;;;;2123632;28;20057;-46
2021/08/10 02:58:42;;;;;;;12.18;10.38;;;;;;;;;;2130100;27;20108;-46
2021/08/10 02:59:46;;;;;;;12.50;10.02;;;;;;;;;;2132937;27;20159;-49
2021/08/10 03:00:51;;;;;;;13.00;11.68;;;;;;;;;;2132047;27;20045;-46
2021/08/10 03:01:57;;;;;;;12.23;10.25;;;;;;;;;;2131918;27;20571;-47
2021/08/10 03:03:01;;;;;;;14.15;11.40;;;;;;;;;;2132664;27;20038;-47
2021/08/10 03:04:04;;;;;;;15.20;9.90;;;;;;;;;;2126127;27;20051;-45
2021/08/10 03:05:09;;;;;;;10.65;9.55;;;;;;;;;;2132241;27;20156;-47
2021/08/10 03:06:11;;;;;;;13.23;10.77;;;;;;;;;;2132857;27;20085;-47
2021/08/10 03:07:12;;;;;;;12.07;9.30;;;;;;;;;;2130343;27;20046;-46
2021/08/10 03:08:20;;;;;;;9.95;8.85;;;;;;;;;;2132395;27;20501;-48
2021/08/10 03:09:21;;;;;;;9.90;8.45;;;;;;;;;;2132629;27;20047;-46
2021/08/10 03:10:23;;;;;;;11.52;8.23;;;;;;;;;;2130349;27;20074;-46
2021/08/10 03:11:25;;;;;;;10.60;8.38;;;;;;;;;;2132594;27;20043;-48
2021/08/10 03:12:27;;;;;;;11.13;8.40;;;;;;;;;;2132699;27;20042;-46
2021/08/10 03:13:30;;;;;;;9.50;8.00;;;;;;;;;;2129379;27;20046;-49
2021/08/10 03:14:31;;;;;;;11.63;8.57;;;;;;;;;;2132904;27;20295;-48
2021/08/10 03:15:33;;;;;;;9.70;7.78;;;;;;;;;;2132244;27;20046;-46
2021/08/10 03:16:36;;;;;;;9.85;8.07;;;;;;;;;;2130739;27;20034;-47
2021/08/10 03:17:38;;;;;;;10.52;8.45;;;;;;;;;;2132591;27;20107;-49
2021/08/10 03:18:39;;;;;;;;;;;;;;;;;;2131656;27;20046;-49
2021/08/10 03:19:40;;;;;;;9.50;7.70;;;;;;;;;;2131734;27;20283;-47
2021/08/10 03:20:43;;;;;;;8.18;7.38;;;;;;;;;;2132605;27;20043;-47
2021/08/10 03:21:45;;;;;;;9.82;8.43;;;;;;;;;;2130557;27;20042;-49
2021/08/10 03:22:46;;;;;;;9.05;8.15;;;;;;;;;;2132024;27;20122;-47
2021/08/10 03:23:49;;;;;;;8.65;7.75;;;;;;;;;;2132604;27;20141;-46
2021/08/10 03:24:51;;;;;;;10.57;8.48;;;;;;;;;;2130414;27;20531;-45
2021/08/10 03:25:52;;;;;;;;;;;;;;;;;;2132695;27;20038;-47
2021/08/10 03:26:54;;;;;;;10.02;8.88;;;;;;;;;;2132497;27;20083;-47
2021/08/10 03:27:55;;;;;;;8.38;7.55;;;;;;;;;;2130381;27;20039;-50
2021/08/10 03:28:56;;;;;;;;;;;;;;;;;;2132724;27;20432;-47
2021/08/10 03:29:57;;;;;;;10.05;8.45;;;;;;;;;;2132504;27;19955;-47
2021/08/10 03:30:59;;;;;;;11.50;8.95;;;;;;;;;;2130176;27;20541;-48
2021/08/10 03:32:01;;;;;;;11.25;8.30;;;;;;;;;;2132342;27;20507;-50
2021/08/10 03:33:02;;;;;;;13.18;8.98;;;;;;;;;;2132097;27;20510;-48
2021/08/10 03:34:03;;;;;;;9.55;7.68;;;;;;;;;;2129881;27;20417;-47
2021/08/10 03:35:05;;;;;;;10.60;8.35;;;;;;;;;;2123690;28;20122;-47
2021/08/10 03:36:06;;;;;;;9.32;8.35;;;;;;;;;;2123585;28;20051;-48
2021/08/10 03:37:07;;;;;;;10.20;7.65;;;;;;;;;;2128586;27;20093;-46
2021/08/10 03:38:09;;;;;;;12.75;8.48;;;;;;;;;;2132579;27;20077;-44
2021/08/10 03:39:11;;;;;;;12.82;9.07;;;;;;;;;;2132218;27;20035;-43
2021/08/10 03:40:12;;;;;;;;;;;;;;;;;;2131021;27;20133;-45
2021/08/10 03:41:13;;;;;;;10.18;8.88;;;;;;;;;;2132350;27;19971;-45
2021/08/10 03:42:14;;;;;;;11.65;9.63;;;;;;;;;;2131924;27;20515;-46
2021/08/10 03:43:15;;;;;;;12.90;9.80;;;;;;;;;;2130395;27;20070;-44
2021/08/10 03:44:16;;;;;;;9.65;8.50;;;;;;;;;;2132530;27;20094;-45
2021/08/10 03:45:19;;;;;;;11.52;9.32;;;;;;;;;;2131686;27;20210;-45
2021/08/10 03:46:20;;;;;;;12.38;10.43;;;;;;;;;;2131724;27;20448;-43
2021/08/10 03:47:22;;;;;;;10.23;9.13;;;;;;;;;;2132344;27;20046;-44
2021/08/10 03:48:23;;;;;;;11.50;9.85;;;;;;;;;;2130426;27;20508;-44
2021/08/10 03:49:24;;;;;;;14.73;9.60;;;;;;;;;;2132029;27;20125;-44
2021/08/10 03:50:26;;;;;;;14.93;10.02;;;;;;;;;;2132601;27;20046;-45
2021/08/10 03:51:28;;;;;;;13.13;9.40;;;;;;;;;;2130274;27;20130;-44
2021/08/10 03:52:29;;;;;;;13.05;9.43;;;;;;;;;;2126547;27;20082;-44
2021/08/10 03:53:31;;;;;;;9.05;8.07;;;;;;;;;;2123829;27;20051;-43
2021/08/10 03:54:32;;;;;;;10.77;8.65;;;;;;;;;;2126353;27;20116;-43
2021/08/10 03:55:34;;;;;;;10.32;8.23;;;;;;;;;;2132118;27;20077;-45
2021/08/10 03:56:36;;;;;;;17.50;8.38;;;;;;;;;;2132387;27;20054;-44
2021/08/10 03:57:37;;;;;;;15.07;8.88;;;;;;;;;;2130212;27;20141;-44
2021/08/10 03:58:39;;;;;;;8.73;7.82;;;;;;;;;;2132051;27;20047;-45
2021/08/10 03:59:40;;;;;;;;;;;;;;;;;;2132604;27;20070;-44
2021/08/10 04:00:42;;;;;;;11.65;8.48;;;;;;;;;;2129994;27;20320;-44
2021/08/10 04:01:43;;;;;;;11.27;8.05;;;;;;;;;;2132742;27;20038;-46
2021/08/10 04:02:44;;;;;;;9.43;8.00;;;;;;;;;;2132267;27;20039;-49
2021/08/10 04:03:46;;;;;;;11.95;8.10;;;;;;;;;;2128650;27;20398;-46
2021/08/10 04:04:50;;;;;;;10.73;8.65;;;;;;;;;;2130428;27;20176;-46
2021/08/10 04:05:52;;;;;;;14.20;8.98;;;;;;;;;;2127446;27;20262;-46
2021/08/10 04:06:54;;;;;;;9.05;7.75;;;;;;;;;;2127571;27;20038;-45
2021/08/10 04:07:55;;;;;;;7.53;6.72;;;;;;;;;;2131244;27;20505;-45
2021/08/10 04:08:56;;;;;;;11.47;8.13;;;;;;;;;;2131183;27;20070;-44
2021/08/10 04:09:57;;;;;;;13.23;8.05;;;;;;;;;;2129618;27;20047;-44
2021/08/10 04:10:58;;;;;;;12.57;8.23;;;;;;;;;;2131744;27;20121;-48
2021/08/10 04:11:59;;;;;;;11.48;8.10;;;;;;;;;;2130721;27;20098;-46
2021/08/10 04:13:00;;;;;;;11.83;8.13;;;;;;;;;;2130066;27;20039;-46
2021/08/10 04:14:01;;;;;;;9.30;8.10;;;;;;;;;;2131679;27;20039;-47
2021/08/10 04:15:02;;;;;;;8.07;7.10;;;;;;;;;;2130090;27;20557;-45
2021/08/10 04:16:04;;;;;;;8.55;7.65;;;;;;;;;;2130850;27;20499;-46
2021/08/10 04:17:06;;;;;;;9.07;7.70;;;;;;;;;;2131597;27;20039;-48
2021/08/10 04:18:08;;;;;;;10.65;7.47;;;;;;;;;;2129595;27;20043;-47
2021/08/10 04:19:09;;;;;;;7.95;6.55;;;;;;;;;;2131151;27;20039;-47
2021/08/10 04:20:10;;;;;;;8.65;7.28;;;;;;;;;;2131532;27;20146;-46
2021/08/10 04:21:11;;;;;;;7.47;6.75;;;;;;;;;;2129727;27;20479;-46
2021/08/10 04:22:13;;;;;;;11.45;7.25;;;;;;;;;;2131432;27;20153;-45
2021/08/10 04:23:14;;;;;;;;;;;;;;;;;;2132567;27;20129;-47
2021/08/10 04:24:15;;;;;;;8.00;6.75;;;;;;;;;;2130056;27;20028;-49
2021/08/10 04:25:16;;;;;;;10.30;7.30;;;;;;;;;;2131325;27;20051;-46
2021/08/10 04:26:17;;;;;;;9.85;7.40;;;;;;;;;;2131392;27;20150;-48
2021/08/10 04:27:18;;;;;;;10.15;6.97;;;;;;;;;;2129403;27;20599;-46
2021/08/10 04:28:19;;;;;;;9.63;7.25;;;;;;;;;;2131297;27;20137;-46
2021/08/10 04:29:20;;;;;;;9.50;7.85;;;;;;;;;;2132280;27;20137;-46
2021/08/10 04:30:21;;;;;;;9.82;7.57;;;;;;;;;;2130948;27;20091;-45
2021/08/10 04:31:22;;;;;;;7.43;6.65;;;;;;;;;;2132297;27;20134;-45
2021/08/10 04:32:23;;;;;;;8.27;7.43;;;;;;;;;;2131949;27;20085;-44
2021/08/10 04:33:24;;;;;;;9.50;7.72;;;;;;;;;;2129326;27;20171;-45
2021/08/10 04:34:25;;;;;;;8.77;6.70;;;;;;;;;;2131875;27;20103;-45
2021/08/10 04:35:26;;;;;;;10.18;6.93;;;;;;;;;;2132072;27;20047;-44
2021/08/10 04:36:27;;;;;;;9.68;6.97;;;;;;;;;;2129695;27;20081;-44
2021/08/10 04:37:29;;;;;;;10.65;7.30;;;;;;;;;;2131639;27;20043;-44
2021/08/10 04:38:30;;;;;;;;;;;;;;;;;;2132128;27;20126;-44
2021/08/10 04:39:31;;;;;;;8.82;6.65;;;;;;;;;;2130122;27;20359;-45
2021/08/10 04:40:32;;;;;;;12.18;7.25;;;;;;;;;;2132132;27;20129;-44
2021/08/10 04:41:33;;;;;;;8.80;7.05;;;;;;;;;;2131859;27;20074;-48
2021/08/10 04:42:34;;;;;;;9.30;7.13;;;;;;;;;;2130028;27;20340;-47
2021/08/10 04:43:36;;;;;;;7.80;7.00;;;;;;;;;;2132043;27;20051;-48
2021/08/10 04:44:36;;;;;;;8.13;6.90;;;;;;;;;;2131526;27;20046;-46
2021/08/10 04:45:37;;;;;;;9.90;7.63;;;;;;;;;;2130411;27;20058;-44
2021/08/10 04:46:38;;;;;;;11.20;7.85;;;;;;;;;;2131984;27;20129;-44
2021/08/10 04:47:40;;;;;;;10.00;7.45;;;;;;;;;;2130398;27;20099;-45
2021/08/10 04:48:40;;;;;;;12.23;7.68;;;;;;;;;;2130976;27;20039;-44
2021/08/10 04:49:42;;;;;;;11.10;7.20;;;;;;;;;;2132127;27;20046;-45
2021/08/10 04:50:43;;;;;;;9.20;7.10;;;;;;;;;;2130032;27;20049;-44
2021/08/10 04:51:44;;;;;;;9.37;6.67;;;;;;;;;;2131752;27;20042;-46
2021/08/10 04:52:45;;;;;;;10.80;6.93;;;;;;;;;;2125329;27;20049;-43
2021/08/10 04:53:47;;;;;;;8.75;7.28;;;;;;;;;;2125243;27;20066;-43
2021/08/10 04:54:48;;;;;;;9.55;7.07;;;;;;;;;;2130699;27;20137;-44
2021/08/10 04:55:49;;;;;;;11.77;7.65;;;;;;;;;;2128954;27;20195;-47
2021/08/10 04:56:50;;;;;;;12.13;7.13;;;;;;;;;;2125552;27;20131;-43
2021/08/10 04:57:51;;;;;;;13.07;7.50;;;;;;;;;;2131222;27;20121;-45
2021/08/10 04:58:52;;;;;;;8.07;7.18;;;;;;;;;;2131496;27;20065;-44
2021/08/10 04:59:53;;;;;;;9.47;6.30;;;;;;;;;;2129366;27;20047;-45
2021/08/10 05:00:54;;;;;;;9.30;7.40;;;;;;;;;;2131444;27;20363;-44
2021/08/10 05:01:55;;;;;;;8.35;7.10;;;;;;;;;;2131901;27;20038;-46
2021/08/10 05:02:57;;;;;;;10.32;6.70;;;;;;;;;;2129573;27;20042;-46
2021/08/10 05:03:59;;;;;;;12.40;7.10;;;;;;;;;;2131372;27;20050;-45
2021/08/10 05:05:00;;;;;;;8.57;6.97;;;;;;;;;;2131359;27;20085;-45
2021/08/10 05:06:03;;;;;;;12.48;7.20;;;;;;;;;;2128986;27;20517;-44
2021/08/10 05:07:04;;;;;;;10.48;6.93;;;;;;;;;;2131552;27;20035;-44
2021/08/10 05:08:06;;;;;;;9.15;7.88;;;;;;;;;;2131244;27;20539;-44
2021/08/10 05:09:07;;;;;;;10.80;6.80;;;;;;;;;;2128763;27;20043;-45
2021/08/10 05:10:09;;;;;;;7.95;7.13;;;;;;;;;;2131514;27;20490;-45
2021/08/10 05:11:10;;;;;;;;;;;;;;;;;;2131565;27;20117;-46
2021/08/10 05:12:11;;;;;;;8.32;7.38;;;;;;;;;;2129257;27;19919;-47
2021/08/10 05:13:12;;;;;;;9.60;7.30;;;;;;;;;;2131199;27;20042;-48
2021/08/10 05:14:13;;;;;;;8.80;6.78;;;;;;;;;;2128118;27;20047;-48
2021/08/10 05:15:14;;;;;;;10.65;7.22;;;;;;;;;;2129294;27;20480;-46
2021/08/10 05:16:15;;;;;;;8.43;6.85;;;;;;;;;;2131297;27;20057;-46
2021/08/10 05:17:17;;;;;;;10.27;6.78;;;;;;;;;;2130015;27;20054;-46
2021/08/10 05:18:17;;;;;;;9.65;7.18;;;;;;;;;;2129937;27;20050;-46
2021/08/10 05:19:19;;;;;;;10.00;6.97;;;;;;;;;;2131224;27;20414;-46
2021/08/10 05:20:19;;;;;;;10.27;6.97;;;;;;;;;;2129468;27;20045;-45
2021/08/10 05:21:21;;;;;;;9.57;6.23;;;;;;;;;;2129758;27;20057;-46
2021/08/10 05:22:22;;;;;;;12.98;7.18;;;;;;;;;;2130200;27;20820;-47
2021/08/10 05:23:23;;;;;;;7.40;6.60;;;;;;;;;;2127609;27;20057;-46
2021/08/10 05:24:24;;;;;;;;;;;;;;;;;;2130361;27;20038;-45
2021/08/10 05:25:25;;;;;;;10.10;6.78;;;;;;;;;;2129907;27;20384;-49
2021/08/10 05:26:26;;;;;;;13.77;6.38;;;;;;;;;;2128915;27;20093;-47
2021/08/10 05:27:27;;;;;;;10.67;6.63;;;;;;;;;;2130309;27;20498;-46
2021/08/10 05:28:28;;;;;;;7.07;6.03;;;;;;;;;;2129882;27;20133;-46
2021/08/10 05:29:29;;;;;;;9.47;6.70;;;;;;;;;;2128657;27;20044;-45
2021/08/10 05:30:30;;;;;;;11.30;7.05;;;;;;;;;;2129919;27;20042;-45
2021/08/10 05:31:31;;;;;;;10.40;6.47;;;;;;;;;;2130399;27;20504;-46
2021/08/10 05:32:32;;;;;;;14.25;6.55;;;;;;;;;;2128829;27;20578;-46
2021/08/10 05:33:53;;;;;;;8.77;6.82;;;;;;;;;;2128253;27;20513;-46
2021/08/10 05:34:54;;;;;;;11.82;6.72;;;;;;;;;;2129896;27;20047;-46
2021/08/10 05:35:55;;;;;;;8.20;6.23;;;;;;;;;;2128758;27;20169;-46
2021/08/10 05:36:56;;;;;;;8.65;6.65;;;;;;;;;;2130590;27;20053;-48
2021/08/10 05:37:57;;;;;;;8.00;7.15;;;;;;;;;;2129627;27;20043;-48
2021/08/10 05:38:59;;;;;;;7.55;6.68;;;;;;;;;;2128087;27;20043;-47
2021/08/10 05:40:01;;;;;;;13.45;6.60;;;;;;;;;;2130154;27;20550;-45
2021/08/10 05:41:03;;;;;;;11.05;6.90;;;;;;;;;;2129025;27;20410;-46
2021/08/10 05:42:04;;;;;;;14.68;7.22;;;;;;;;;;2128494;27;20499;-46
2021/08/10 05:43:05;;;;;;;10.68;6.72;;;;;;;;;;2130522;27;20042;-46
2021/08/10 05:44:06;;;;;;;9.27;5.88;;;;;;;;;;2128539;27;20398;-46
2021/08/10 05:45:07;;;;;;;7.93;6.45;;;;;;;;;;2130257;27;20042;-46
2021/08/10 05:46:08;;;;;;;7.50;6.30;;;;;;;;;;2130616;27;20050;-46
2021/08/10 05:47:09;;;;;;;8.23;5.72;;;;;;;;;;2129128;27;20042;-48
2021/08/10 05:48:11;;;;;;;10.73;6.43;;;;;;;;;;2130191;27;20161;-46
2021/08/10 05:49:12;;;;;;;7.38;5.95;;;;;;;;;;2130430;27;20172;-46
2021/08/10 05:50:13;;;;;;;7.50;5.53;;;;;;;;;;2129436;27;20059;-47
2021/08/10 05:51:14;;;;;;;11.57;6.47;;;;;;;;;;2129756;27;20055;-46
2021/08/10 05:52:15;;;;;;;11.73;6.13;;;;;;;;;;2128213;27;20099;-46
2021/08/10 05:53:16;;;;;;;6.72;5.60;;;;;;;;;;2125560;27;20050;-46
2021/08/10 05:54:18;;;;;;;8.80;5.77;;;;;;;;;;2129413;27;20074;-46
2021/08/10 05:55:18;;;;;;;;;;;;;;;;;;2130806;27;20195;-46
2021/08/10 05:56:19;;;;;;;7.78;6.00;;;;;;;;;;2128638;27;19923;-47
2021/08/10 05:57:20;;;;;;;10.60;6.03;;;;;;;;;;2129128;27;20461;-47
2021/08/10 05:58:22;;;;;;;9.32;5.80;;;;;;;;;;2130406;27;20051;-46
2021/08/10 05:59:23;;;;;;;8.20;5.80;;;;;;;;;;2128216;27;20055;-47
2021/08/10 06:00:24;;;;;;;10.52;5.95;;;;;;;;;;2130674;27;20505;-46
2021/08/10 06:01:25;;;;;;;13.93;5.83;;;;;;;;;;2130848;27;20062;-46
2021/08/10 06:02:26;;;;;;;9.32;5.68;;;;;;;;;;2127893;27;20285;-47
2021/08/10 06:03:27;;;;;;;15.02;6.72;;;;;;;;;;2130518;27;20047;-46
2021/08/10 06:04:29;;;;;;;11.00;6.10;;;;;;;;;;2128742;27;20498;-46
2021/08/10 06:05:30;;;;;;;11.50;5.82;;;;;;;;;;2128218;27;20042;-44
2021/08/10 06:06:33;;;;;;;8.98;6.10;;;;;;;;;;2130830;27;20042;-46
2021/08/10 06:07:34;;;;;;;9.60;5.47;;;;;;;;;;2128384;27;20038;-46
2021/08/10 06:08:36;;;;;;;6.07;5.10;;;;;;;;;;2129168;27;20491;-47
2021/08/10 06:09:37;;;;;;;10.77;5.63;;;;;;;;;;2130338;27;20493;-46